Time;durP1;ratioP1;P1;durP2;ratioP2;P2;SDS_P1;SDS_P2;PMS_P1;PMS_P2;Temp;Humidity;BMP_temperature;BMP_pressure;BME280_temperature;BME280_humidity;BME280_pressure;Samples;Min_cycle;Max_cycle;Signal;HPM_P1;HPM_P2
2024/03/04 00:02:22;;;;;;;7.28;6.03;;;;;;;;;;5861558;28;20057;-79
2024/03/04 00:05:13;;;;;;;13.02;7.18;;;;;;;;;;5861314;28;20049;-79
2024/03/04 00:08:04;;;;;;;14.85;8.25;;;;;;;;;;5861056;28;20045;-79
2024/03/04 00:10:54;;;;;;;19.52;7.35;;;;;;;;;;5862084;28;20037;-79
2024/03/04 00:13:46;;;;;;;7.45;5.75;;;;;;;;;;5861423;28;20171;-79
2024/03/04 00:16:36;;;;;;;9.70;6.35;;;;;;;;;;5861436;28;20041;-79
2024/03/04 00:19:27;;;;;;;7.85;7.03;;;;;;;;;;5861030;28;20152;-79
2024/03/04 00:22:18;;;;;;;6.10;5.47;;;;;;;;;;5844723;28;20046;-79
2024/03/04 00:25:14;;;;;;;9.05;6.30;;;;;;;;;;5861183;28;20419;-79
2024/03/04 00:28:05;;;;;;;7.47;6.00;;;;;;;;;;5860872;28;20522;-79
2024/03/04 00:30:56;;;;;;;11.05;6.45;;;;;;;;;;5877461;28;20052;-79
2024/03/04 00:33:47;;;;;;;11.40;7.30;;;;;;;;;;5860790;28;20400;-79
2024/03/04 00:36:38;;;;;;;5.97;4.78;;;;;;;;;;5862143;28;20041;-79
2024/03/04 00:39:28;;;;;;;14.20;8.05;;;;;;;;;;5861989;28;20052;-79
2024/03/04 00:42:19;;;;;;;7.40;6.30;;;;;;;;;;5860844;28;20045;-79
2024/03/04 00:45:12;;;;;;;15.52;7.53;;;;;;;;;;5860683;28;20054;-79
2024/03/04 00:48:03;;;;;;;9.13;6.53;;;;;;;;;;5861662;28;20045;-78
2024/03/04 00:50:56;;;;;;;13.60;6.75;;;;;;;;;;5861040;28;20053;-79
2024/03/04 00:53:47;;;;;;;12.75;8.13;;;;;;;;;;5862184;28;20038;-79
2024/03/04 00:56:38;;;;;;;13.93;6.90;;;;;;;;;;5876548;28;20049;-79
2024/03/04 00:59:30;;;;;;;12.35;6.13;;;;;;;;;;5861935;28;20044;-79
2024/03/04 01:02:21;;;;;;;9.45;6.68;;;;;;;;;;5859777;28;20149;-79
2024/03/04 01:05:12;;;;;;;12.02;7.53;;;;;;;;;;5841020;28;20065;-79
2024/03/04 01:08:03;;;;;;;16.08;8.20;;;;;;;;;;5837505;28;20505;-79
2024/03/04 01:10:55;;;;;;;18.90;8.82;;;;;;;;;;5839046;28;20058;-79
2024/03/04 01:13:47;;;;;;;13.93;8.88;;;;;;;;;;5815348;28;20046;-79
2024/03/04 01:16:41;;;;;;;16.45;7.03;;;;;;;;;;5835758;28;20041;-79
2024/03/04 01:19:33;;;;;;;12.80;6.88;;;;;;;;;;5838389;28;20128;-79
2024/03/04 01:22:26;;;;;;;12.43;8.13;;;;;;;;;;5853329;28;20046;-79
2024/03/04 01:25:17;;;;;;;13.10;5.93;;;;;;;;;;5838610;28;20124;-79
2024/03/04 01:28:08;;;;;;;9.20;6.70;;;;;;;;;;5838580;28;20045;-78
2024/03/04 01:30:59;;;;;;;9.32;7.75;;;;;;;;;;5837560;28;20121;-79
2024/03/04 01:33:50;;;;;;;14.60;6.55;;;;;;;;;;5837211;28;20042;-79
2024/03/04 01:36:41;;;;;;;8.13;6.22;;;;;;;;;;5853320;28;20460;-79
2024/03/04 01:39:33;;;;;;;7.22;5.20;;;;;;;;;;5853232;28;20104;-79
2024/03/04 01:42:25;;;;;;;11.13;7.55;;;;;;;;;;5801761;28;20046;-79
2024/03/04 01:45:25;;;;;;;6.63;5.88;;;;;;;;;;5830401;28;20062;-79
2024/03/04 01:48:16;;;;;;;6.38;5.72;;;;;;;;;;5832625;28;20049;-79
2024/03/04 01:51:08;;;;;;;8.63;6.53;;;;;;;;;;5836708;28;20052;-79
2024/03/04 01:54:00;;;;;;;8.02;7.15;;;;;;;;;;5821590;28;20057;-79
2024/03/04 01:56:51;;;;;;;9.50;5.97;;;;;;;;;;5814299;28;20062;-79
2024/03/04 01:59:49;;;;;;;8.45;5.82;;;;;;;;;;5797897;28;20393;-79
2024/03/04 02:02:40;;;;;;;8.27;6.40;;;;;;;;;;5814153;28;20177;-79
2024/03/04 02:05:32;;;;;;;10.88;6.20;;;;;;;;;;5815788;28;20057;-79
2024/03/04 02:08:23;;;;;;;10.73;6.30;;;;;;;;;;5815850;28;20042;-79
2024/03/04 02:11:14;;;;;;;6.45;5.85;;;;;;;;;;5818436;28;20050;-79
2024/03/04 02:14:08;;;;;;;7.07;6.38;;;;;;;;;;5802746;28;20065;-79
2024/03/04 02:16:59;;;;;;;11.20;5.70;;;;;;;;;;5819181;28;20528;-79
2024/03/04 02:19:49;;;;;;;6.13;5.03;;;;;;;;;;5819908;28;20057;-79
2024/03/04 02:22:41;;;;;;;4.53;4.10;;;;;;;;;;5818868;28;20056;-79
2024/03/04 02:25:34;;;;;;;12.38;7.15;;;;;;;;;;5819771;28;20113;-79
2024/03/04 02:28:28;;;;;;;5.88;5.22;;;;;;;;;;5818535;28;20053;-79
2024/03/04 02:31:20;;;;;;;5.28;4.78;;;;;;;;;;5818601;28;20385;-79
2024/03/04 02:34:13;;;;;;;12.07;7.18;;;;;;;;;;5818730;28;20057;-79
2024/03/04 02:37:04;;;;;;;9.35;6.55;;;;;;;;;;5818342;28;20046;-79
2024/03/04 02:39:55;;;;;;;7.05;5.13;;;;;;;;;;5802629;28;20042;-79
2024/03/04 02:42:46;;;;;;;7.70;5.90;;;;;;;;;;5818339;28;20074;-79
2024/03/04 02:45:40;;;;;;;5.35;4.82;;;;;;;;;;5818094;28;20052;-80
2024/03/04 02:48:31;;;;;;;7.53;5.82;;;;;;;;;;5802290;28;20416;-79
2024/03/04 02:51:23;;;;;;;10.95;6.45;;;;;;;;;;5817877;28;20043;-79
2024/03/04 02:54:14;;;;;;;6.97;6.28;;;;;;;;;;5819415;28;20393;-79
2024/03/04 02:57:05;;;;;;;10.80;6.30;;;;;;;;;;5819286;28;20039;-79
2024/03/04 02:59:56;;;;;;;8.68;6.65;;;;;;;;;;5818585;28;20046;-79
2024/03/04 03:02:46;;;;;;;14.25;9.18;;;;;;;;;;5819596;28;20046;-79
2024/03/04 03:05:37;;;;;;;10.55;6.47;;;;;;;;;;5819348;28;20416;-80
2024/03/04 03:08:28;;;;;;;9.65;6.65;;;;;;;;;;5800904;28;20046;-80
2024/03/04 03:11:19;;;;;;;13.77;9.77;;;;;;;;;;5817334;28;20049;-79
2024/03/04 03:14:10;;;;;;;10.57;6.95;;;;;;;;;;5817481;28;20132;-79
2024/03/04 03:17:01;;;;;;;7.68;6.63;;;;;;;;;;5818407;28;20053;-79
2024/03/04 03:19:52;;;;;;;7.47;6.32;;;;;;;;;;5816508;28;20058;-79
2024/03/04 03:22:45;;;;;;;10.07;6.90;;;;;;;;;;5816740;28;20057;-79
2024/03/04 03:25:36;;;;;;;11.07;7.85;;;;;;;;;;5816191;28;20042;-80
2024/03/04 03:28:27;;;;;;;8.52;6.10;;;;;;;;;;5817293;28;20247;-80
2024/03/04 03:31:19;;;;;;;10.52;7.70;;;;;;;;;;5815859;28;20050;-79
2024/03/04 03:34:10;;;;;;;11.80;7.68;;;;;;;;;;5817609;28;20196;-79
2024/03/04 03:37:01;;;;;;;7.90;7.20;;;;;;;;;;5816036;28;20125;-79
2024/03/04 03:39:52;;;;;;;6.97;5.13;;;;;;;;;;5816531;28;20185;-80
2024/03/04 03:42:43;;;;;;;8.93;5.28;;;;;;;;;;5816053;28;20046;-79
2024/03/04 03:45:33;;;;;;;10.65;5.72;;;;;;;;;;5817212;28;20763;-80
2024/03/04 03:48:25;;;;;;;16.17;7.38;;;;;;;;;;5815629;28;20053;-80
2024/03/04 03:51:16;;;;;;;11.50;6.75;;;;;;;;;;5815849;28;20050;-79
2024/03/04 03:54:07;;;;;;;12.05;6.43;;;;;;;;;;5815857;28;20054;-79
2024/03/04 03:56:58;;;;;;;11.85;9.07;;;;;;;;;;5817260;28;20069;-80
2024/03/04 03:59:49;;;;;;;8.95;5.40;;;;;;;;;;5815796;28;20058;-80
2024/03/04 04:02:40;;;;;;;7.65;6.55;;;;;;;;;;5816804;28;20060;-79
2024/03/04 04:05:31;;;;;;;9.18;6.82;;;;;;;;;;5817551;28;20046;-79
2024/03/04 04:08:22;;;;;;;7.55;5.88;;;;;;;;;;5817223;28;20370;-80
2024/03/04 04:11:13;;;;;;;11.15;8.20;;;;;;;;;;5814049;28;20050;-79
2024/03/04 04:14:03;;;;;;;9.43;7.07;;;;;;;;;;5814038;28;20039;-79
2024/03/04 04:16:54;;;;;;;10.88;8.48;;;;;;;;;;5797715;28;20045;-79
2024/03/04 04:19:45;;;;;;;6.95;5.55;;;;;;;;;;5812828;28;20492;-79
2024/03/04 04:22:36;;;;;;;19.73;8.10;;;;;;;;;;5813206;28;20540;-79
2024/03/04 04:25:27;;;;;;;6.90;6.07;;;;;;;;;;5814678;28;20046;-80
2024/03/04 04:28:18;;;;;;;20.08;8.80;;;;;;;;;;5813136;28;20181;-80
2024/03/04 04:31:21;;;;;;;12.65;6.53;;;;;;;;;;5814873;28;20512;-79
2024/03/04 04:34:12;;;;;;;10.65;6.22;;;;;;;;;;5798886;28;20128;-82
2024/03/04 04:37:04;;;;;;;9.07;7.78;;;;;;;;;;5815311;28;20042;-81
2024/03/04 04:39:55;;;;;;;15.93;7.85;;;;;;;;;;5816870;28;20127;-82
2024/03/04 04:42:46;;;;;;;9.68;7.72;;;;;;;;;;5814629;28;20051;-82
2024/03/04 04:45:37;;;;;;;7.90;7.18;;;;;;;;;;5798820;28;20038;-82
2024/03/04 04:48:28;;;;;;;8.13;7.32;;;;;;;;;;5816052;28;20042;-81
2024/03/04 04:51:19;;;;;;;6.95;6.20;;;;;;;;;;5814659;28;20061;-81
2024/03/04 04:54:12;;;;;;;9.38;6.85;;;;;;;;;;5814685;28;20050;-81
2024/03/04 04:57:03;;;;;;;8.48;7.50;;;;;;;;;;5816154;28;20053;-81
2024/03/04 04:59:54;;;;;;;9.63;8.27;;;;;;;;;;5815512;28;20042;-82
2024/03/04 05:02:44;;;;;;;10.88;6.03;;;;;;;;;;5816949;28;20504;-80
2024/03/04 05:05:36;;;;;;;14.63;8.00;;;;;;;;;;5816515;28;20129;-80
2024/03/04 05:08:27;;;;;;;12.65;7.05;;;;;;;;;;5815394;28;20123;-80
2024/03/04 05:11:18;;;;;;;8.90;7.97;;;;;;;;;;5816279;28;20066;-80
2024/03/04 05:14:09;;;;;;;9.00;7.68;;;;;;;;;;5815667;28;20050;-79
2024/03/04 05:17:00;;;;;;;10.93;6.88;;;;;;;;;;5814749;28;20050;-80
2024/03/04 05:19:51;;;;;;;6.93;5.85;;;;;;;;;;5815792;28;20034;-80
2024/03/04 05:22:43;;;;;;;8.55;6.13;;;;;;;;;;5814613;28;20500;-80
2024/03/04 05:25:34;;;;;;;11.68;7.28;;;;;;;;;;5814369;28;20125;-80
2024/03/04 05:28:26;;;;;;;13.63;8.02;;;;;;;;;;5798744;28;20416;-79
2024/03/04 05:31:18;;;;;;;13.90;7.60;;;;;;;;;;5814769;28;20057;-79
2024/03/04 05:34:09;;;;;;;9.05;6.07;;;;;;;;;;5814628;28;20133;-79
2024/03/04 05:37:00;;;;;;;10.35;6.72;;;;;;;;;;5815573;28;20493;-80
2024/03/04 05:39:50;;;;;;;23.45;7.22;;;;;;;;;;5815074;28;20046;-80
2024/03/04 05:42:41;;;;;;;12.02;8.05;;;;;;;;;;5814233;28;20034;-80
2024/03/04 05:45:33;;;;;;;8.48;6.90;;;;;;;;;;5819224;28;20077;-79
2024/03/04 05:48:24;;;;;;;13.13;7.90;;;;;;;;;;5803435;28;20049;-80
2024/03/04 05:51:15;;;;;;;9.25;6.85;;;;;;;;;;5819080;28;20050;-80
2024/03/04 05:54:07;;;;;;;9.38;6.88;;;;;;;;;;5819196;28;20058;-80
2024/03/04 05:56:58;;;;;;;11.30;7.93;;;;;;;;;;5819578;28;20043;-80
2024/03/04 05:59:49;;;;;;;9.80;7.97;;;;;;;;;;5818978;28;20043;-80
2024/03/04 06:02:43;;;;;;;15.07;7.28;;;;;;;;;;5819076;28;20053;-80
2024/03/04 06:05:34;;;;;;;7.97;6.18;;;;;;;;;;5802400;28;20149;-80
2024/03/04 06:08:25;;;;;;;14.27;8.82;;;;;;;;;;5817800;28;20047;-80
2024/03/04 06:11:16;;;;;;;15.95;8.93;;;;;;;;;;5818056;28;20050;-79
2024/03/04 06:14:07;;;;;;;13.55;7.60;;;;;;;;;;5818204;28;20090;-79
2024/03/04 06:16:58;;;;;;;7.88;7.05;;;;;;;;;;5818305;28;20049;-80
2024/03/04 06:19:48;;;;;;;11.48;7.70;;;;;;;;;;5817518;28;20054;-80
2024/03/04 06:22:39;;;;;;;15.63;9.43;;;;;;;;;;5819140;28;20137;-79
2024/03/04 06:25:30;;;;;;;14.80;6.38;;;;;;;;;;5819102;28;20046;-79
2024/03/04 06:28:22;;;;;;;8.60;7.38;;;;;;;;;;5817682;28;20536;-79
2024/03/04 06:31:13;;;;;;;11.68;9.07;;;;;;;;;;5801572;28;20058;-79
2024/03/04 06:34:04;;;;;;;8.05;6.45;;;;;;;;;;5817550;28;20125;-79
2024/03/04 06:37:11;;;;;;;11.05;6.30;;;;;;;;;;5818624;28;20401;-79
2024/03/04 06:40:02;;;;;;;9.20;6.55;;;;;;;;;;5817529;28;20060;-79
2024/03/04 06:42:53;;;;;;;9.45;7.18;;;;;;;;;;5817951;28;20212;-80
2024/03/04 06:45:44;;;;;;;15.57;6.70;;;;;;;;;;5801076;28;20046;-79
2024/03/04 06:48:36;;;;;;;12.52;7.55;;;;;;;;;;5818619;28;20046;-79
2024/03/04 06:51:29;;;;;;;12.23;7.15;;;;;;;;;;5818289;28;20047;-80
2024/03/04 06:54:20;;;;;;;10.85;7.85;;;;;;;;;;5817037;28;20483;-80
2024/03/04 06:57:14;;;;;;;11.70;9.00;;;;;;;;;;5817823;28;20379;-80
2024/03/04 07:00:09;;;;;;;9.13;7.03;;;;;;;;;;5818501;28;20046;-79
2024/03/04 07:02:59;;;;;;;13.10;8.00;;;;;;;;;;5833657;28;20052;-80
2024/03/04 07:05:50;;;;;;;14.05;8.57;;;;;;;;;;5856277;28;20037;-80
2024/03/04 07:08:41;;;;;;;17.33;7.57;;;;;;;;;;5855992;28;20049;-80
2024/03/04 07:11:32;;;;;;;9.95;7.43;;;;;;;;;;5856046;28;20530;-79
2024/03/04 07:14:23;;;;;;;8.55;7.68;;;;;;;;;;5839350;28;20057;-80
2024/03/04 07:17:14;;;;;;;11.35;7.72;;;;;;;;;;5855821;28;20060;-79
2024/03/04 07:20:09;;;;;;;16.75;8.48;;;;;;;;;;5855808;28;20042;-79
2024/03/04 07:22:59;;;;;;;10.02;7.70;;;;;;;;;;5855654;28;20057;-80
2024/03/04 07:25:51;;;;;;;7.95;6.63;;;;;;;;;;5831263;28;20047;-79
2024/03/04 07:28:43;;;;;;;13.55;8.20;;;;;;;;;;5839313;28;20143;-80
2024/03/04 07:31:34;;;;;;;12.38;7.82;;;;;;;;;;5839285;28;20492;-80
2024/03/04 07:34:27;;;;;;;11.65;7.57;;;;;;;;;;5855188;28;20045;-80
2024/03/04 07:37:18;;;;;;;9.70;6.68;;;;;;;;;;5855398;28;20050;-80
2024/03/04 07:40:10;;;;;;;11.13;6.53;;;;;;;;;;5855694;28;20072;-79
2024/03/04 07:43:02;;;;;;;11.95;6.32;;;;;;;;;;5855348;28;20053;-79
2024/03/04 07:45:53;;;;;;;12.57;7.78;;;;;;;;;;5839234;28;20057;-80
2024/03/04 07:48:44;;;;;;;10.82;6.55;;;;;;;;;;5855317;28;20046;-80
2024/03/04 07:51:35;;;;;;;12.27;7.10;;;;;;;;;;5840200;28;20053;-80
2024/03/04 07:54:25;;;;;;;9.65;6.72;;;;;;;;;;5838633;28;20480;-80
2024/03/04 07:57:16;;;;;;;12.32;8.20;;;;;;;;;;5854988;28;20057;-80
2024/03/04 08:00:14;;;;;;;16.33;8.10;;;;;;;;;;5854359;28;20059;-80
2024/03/04 08:03:06;;;;;;;12.45;7.38;;;;;;;;;;5839622;28;20038;-80
2024/03/04 08:05:57;;;;;;;67.18;45.47;;;;;;;;;;5857467;28;20049;-80
2024/03/04 08:08:48;;;;;;;31.92;19.73;;;;;;;;;;5855008;28;20041;-80
2024/03/04 08:11:39;;;;;;;87.63;54.58;;;;;;;;;;5838160;28;20143;-80
2024/03/04 08:14:30;;;;;;;193.70;74.25;;;;;;;;;;5838277;28;20081;-80
2024/03/04 08:17:20;;;;;;;27.00;14.07;;;;;;;;;;5839513;28;20056;-80
2024/03/04 08:20:16;;;;;;;8.80;7.32;;;;;;;;;;5839505;28;20052;-79
2024/03/04 08:23:22;;;;;;;24.85;9.07;;;;;;;;;;5839622;28;20045;-80
2024/03/04 08:26:13;;;;;;;40.78;27.17;;;;;;;;;;5838603;28;20053;-80
2024/03/04 08:29:04;;;;;;;10.75;8.27;;;;;;;;;;5838872;28;20052;-80
2024/03/04 08:31:55;;;;;;;18.90;8.77;;;;;;;;;;5839054;28;20046;-80
2024/03/04 08:34:50;;;;;;;19.60;12.15;;;;;;;;;;5854979;28;20049;-80
2024/03/04 08:37:42;;;;;;;11.20;6.28;;;;;;;;;;5838981;28;20144;-80
2024/03/04 08:40:33;;;;;;;9.07;6.43;;;;;;;;;;5838917;28;20049;-80
2024/03/04 08:43:24;;;;;;;8.45;6.53;;;;;;;;;;5854433;28;20356;-79
2024/03/04 08:46:15;;;;;;;13.95;6.85;;;;;;;;;;5821840;28;20528;-80
2024/03/04 08:49:06;;;;;;;28.77;12.75;;;;;;;;;;5839360;28;20428;-79
2024/03/04 08:51:57;;;;;;;10.43;6.18;;;;;;;;;;5838233;28;20130;-80
2024/03/04 08:54:48;;;;;;;11.63;5.80;;;;;;;;;;5853860;28;20637;-80
2024/03/04 08:57:39;;;;;;;23.70;10.48;;;;;;;;;;5853851;28;20049;-80
2024/03/04 09:00:29;;;;;;;10.90;6.40;;;;;;;;;;5837395;28;20058;-80
2024/03/04 09:03:20;;;;;;;25.33;12.82;;;;;;;;;;5837899;28;20053;-80
2024/03/04 09:06:17;;;;;;;11.88;6.30;;;;;;;;;;5837679;28;20056;-80
2024/03/04 09:09:09;;;;;;;7.65;6.43;;;;;;;;;;5839115;28;20058;-80
2024/03/04 09:12:03;;;;;;;10.85;6.40;;;;;;;;;;5839479;28;20050;-80
2024/03/04 09:14:54;;;;;;;18.33;9.20;;;;;;;;;;5853546;28;20053;-80
2024/03/04 09:17:45;;;;;;;14.38;7.13;;;;;;;;;;5837323;28;20073;-80
2024/03/04 09:20:36;;;;;;;10.10;6.40;;;;;;;;;;5843665;28;20045;-80
2024/03/04 09:23:26;;;;;;;10.48;6.60;;;;;;;;;;5843533;28;20042;-80
2024/03/04 09:26:17;;;;;;;8.25;5.05;;;;;;;;;;5858452;28;20054;-79
2024/03/04 09:29:08;;;;;;;11.48;6.57;;;;;;;;;;5841985;28;20042;-79
2024/03/04 09:31:59;;;;;;;9.00;5.28;;;;;;;;;;5858390;28;20053;-80
2024/03/04 09:34:50;;;;;;;10.10;6.55;;;;;;;;;;5841905;28;20052;-81
2024/03/04 09:37:41;;;;;;;16.35;7.47;;;;;;;;;;5843227;28;20042;-81
2024/03/04 09:40:34;;;;;;;17.05;9.18;;;;;;;;;;5858218;28;20045;-79
2024/03/04 09:43:28;;;;;;;12.00;5.47;;;;;;;;;;5841574;28;20401;-80
2024/03/04 09:46:20;;;;;;;8.77;5.82;;;;;;;;;;5841388;28;20050;-80
2024/03/04 09:49:13;;;;;;;8.77;5.30;;;;;;;;;;5842654;28;20050;-79
2024/03/04 09:52:07;;;;;;;8.65;5.35;;;;;;;;;;5857355;28;20045;-79
2024/03/04 09:54:58;;;;;;;7.97;6.18;;;;;;;;;;5841969;28;20053;-80
2024/03/04 09:57:53;;;;;;;10.43;6.38;;;;;;;;;;5841811;28;20049;-80
2024/03/04 10:00:45;;;;;;;10.27;6.00;;;;;;;;;;5843178;28;20046;-80
2024/03/04 10:03:36;;;;;;;6.82;3.95;;;;;;;;;;5858482;28;20133;-80
2024/03/04 10:06:27;;;;;;;11.77;6.63;;;;;;;;;;5857530;28;20053;-80
2024/03/04 10:09:18;;;;;;;9.63;5.13;;;;;;;;;;5857314;28;20049;-79
2024/03/04 10:12:10;;;;;;;7.07;4.22;;;;;;;;;;5857592;28;20064;-80
2024/03/04 10:15:11;;;;;;;11.70;5.18;;;;;;;;;;5841174;28;20053;-79
2024/03/04 10:18:12;;;;;;;9.70;4.63;;;;;;;;;;5842676;28;20046;-79
2024/03/04 10:21:03;;;;;;;7.82;4.90;;;;;;;;;;5856970;28;20049;-80
2024/03/04 10:23:57;;;;;;;8.55;5.30;;;;;;;;;;5857704;28;20049;-79
2024/03/04 10:26:49;;;;;;;11.32;5.15;;;;;;;;;;5840820;28;20045;-80
2024/03/04 10:29:39;;;;;;;7.78;5.70;;;;;;;;;;5855879;28;20145;-80
2024/03/04 10:32:30;;;;;;;10.23;4.38;;;;;;;;;;5856466;28;20615;-80
2024/03/04 10:35:23;;;;;;;9.98;4.32;;;;;;;;;;5840561;28;20065;-79
2024/03/04 10:38:19;;;;;;;13.30;5.47;;;;;;;;;;5856531;28;20057;-80
2024/03/04 10:41:22;;;;;;;11.32;5.20;;;;;;;;;;5856567;28;20249;-80
2024/03/04 10:44:26;;;;;;;6.82;4.57;;;;;;;;;;5841717;28;20053;-80
2024/03/04 10:47:22;;;;;;;9.07;5.75;;;;;;;;;;5840405;28;20073;-79
2024/03/04 10:50:15;;;;;;;14.18;6.15;;;;;;;;;;5841505;28;20527;-80
2024/03/04 10:53:06;;;;;;;13.55;7.40;;;;;;;;;;5856350;28;20163;-81
2024/03/04 10:56:06;;;;;;;9.05;6.35;;;;;;;;;;5841870;28;20171;-81
2024/03/04 10:59:00;;;;;;;12.70;6.35;;;;;;;;;;5849775;28;20724;-80
2024/03/04 11:01:52;;;;;;;12.30;7.70;;;;;;;;;;5840657;28;20049;-80
2024/03/04 11:04:45;;;;;;;9.88;6.45;;;;;;;;;;5823979;28;20050;-79
2024/03/04 11:07:42;;;;;;;155.60;56.40;;;;;;;;;;5839984;28;20124;-80
2024/03/04 11:10:51;;;;;;;14.87;9.27;;;;;;;;;;5839862;28;20053;-80
2024/03/04 11:13:55;;;;;;;62.83;25.35;;;;;;;;;;5855360;28;20465;-79
2024/03/04 11:17:18;;;;;;;71.82;31.92;;;;;;;;;;5839554;28;20046;-80
2024/03/04 11:20:11;;;;;;;16.35;6.05;;;;;;;;;;5817857;28;20046;-80
2024/03/04 11:23:03;;;;;;;13.23;6.30;;;;;;;;;;5816850;28;20088;-80
2024/03/04 11:25:55;;;;;;;15.20;7.95;;;;;;;;;;5801233;28;20417;-81
2024/03/04 11:28:48;;;;;;;9.57;6.35;;;;;;;;;;5800716;28;20046;-80
2024/03/04 11:31:40;;;;;;;8.38;5.97;;;;;;;;;;5816898;28;20050;-80
2024/03/04 11:34:31;;;;;;;32.95;12.38;;;;;;;;;;5800574;28;20073;-80
2024/03/04 11:37:28;;;;;;;8.85;5.35;;;;;;;;;;5816205;28;20046;-81
2024/03/04 11:40:27;;;;;;;21.53;11.73;;;;;;;;;;5816458;28;20074;-80
2024/03/04 11:43:43;;;;;;;23.02;11.05;;;;;;;;;;5817342;28;20050;-80
2024/03/04 11:46:41;;;;;;;14.40;5.25;;;;;;;;;;5817400;28;20092;-81
2024/03/04 11:49:44;;;;;;;17.90;9.05;;;;;;;;;;5800584;28;20046;-80
2024/03/04 11:52:38;;;;;;;17.58;7.85;;;;;;;;;;5816998;28;20416;-81
2024/03/04 11:55:30;;;;;;;17.70;9.25;;;;;;;;;;5816407;28;20050;-80
2024/03/04 11:58:22;;;;;;;21.00;8.32;;;;;;;;;;5816991;28;20058;-80
2024/03/04 12:01:13;;;;;;;14.65;8.32;;;;;;;;;;5816646;28;20053;-80
2024/03/04 12:04:12;;;;;;;13.45;8.07;;;;;;;;;;5818145;28;20054;-80
2024/03/04 12:07:04;;;;;;;16.25;8.13;;;;;;;;;;5816277;28;20068;-79
2024/03/04 12:10:05;;;;;;;18.73;8.52;;;;;;;;;;5816937;28;20073;-80
2024/03/04 12:13:06;;;;;;;45.58;19.73;;;;;;;;;;5817212;28;20062;-79
2024/03/04 12:15:57;;;;;;;15.98;9.75;;;;;;;;;;5817901;28;20200;-80
2024/03/04 12:18:49;;;;;;;15.80;7.07;;;;;;;;;;5815892;28;20043;-80
2024/03/04 12:21:40;;;;;;;9.32;5.93;;;;;;;;;;5816157;28;20121;-80
2024/03/04 12:24:31;;;;;;;13.40;6.32;;;;;;;;;;5817648;28;20053;-80
2024/03/04 12:27:24;;;;;;;14.07;7.00;;;;;;;;;;5800235;28;20547;-80
2024/03/04 12:30:19;;;;;;;57.72;27.70;;;;;;;;;;5815981;28;20176;-79
2024/03/04 12:33:10;;;;;;;22.67;11.23;;;;;;;;;;5815629;28;20050;-79
2024/03/04 12:36:01;;;;;;;34.28;16.67;;;;;;;;;;5815646;28;20072;-79
2024/03/04 12:38:56;;;;;;;14.98;8.05;;;;;;;;;;5815890;28;20047;-80
2024/03/04 12:41:50;;;;;;;13.23;8.25;;;;;;;;;;5815711;28;20042;-81
2024/03/04 12:44:40;;;;;;;12.65;6.45;;;;;;;;;;5799788;28;20042;-80
2024/03/04 12:47:34;;;;;;;9.23;6.38;;;;;;;;;;5815870;28;20046;-80
2024/03/04 12:50:28;;;;;;;33.08;10.27;;;;;;;;;;5815536;28;20072;-79
2024/03/04 12:53:20;;;;;;;19.00;8.82;;;;;;;;;;5814237;28;20054;-80
2024/03/04 12:56:12;;;;;;;22.50;8.43;;;;;;;;;;5816281;28;20129;-79
2024/03/04 12:59:03;;;;;;;16.85;10.00;;;;;;;;;;5815068;28;20057;-79
2024/03/04 13:01:54;;;;;;;12.32;8.68;;;;;;;;;;5815084;28;20053;-80
2024/03/04 13:04:45;;;;;;;19.75;11.00;;;;;;;;;;5814675;28;20536;-81
2024/03/04 13:07:37;;;;;;;23.02;13.43;;;;;;;;;;5815048;28;20057;-79
2024/03/04 13:10:28;;;;;;;31.30;10.13;;;;;;;;;;5814705;28;20057;-80
2024/03/04 13:13:19;;;;;;;16.38;9.40;;;;;;;;;;5815208;28;20144;-79
2024/03/04 13:16:10;;;;;;;20.88;10.75;;;;;;;;;;5815348;28;20051;-79
2024/03/04 13:19:02;;;;;;;35.58;17.60;;;;;;;;;;5816989;28;20112;-79
2024/03/04 13:21:53;;;;;;;21.73;9.98;;;;;;;;;;5818258;28;20135;-80
2024/03/04 13:24:44;;;;;;;23.73;12.55;;;;;;;;;;5817097;28;20065;-80
2024/03/04 13:27:36;;;;;;;49.33;22.65;;;;;;;;;;5816410;28;20050;-79
2024/03/04 13:30:27;;;;;;;21.30;9.18;;;;;;;;;;5801432;28;20050;-80
2024/03/04 13:33:18;;;;;;;24.23;11.80;;;;;;;;;;5817943;28;20050;-79
2024/03/04 13:36:09;;;;;;;15.13;5.70;;;;;;;;;;5800570;28;20192;-80
2024/03/04 13:39:00;;;;;;;23.02;8.90;;;;;;;;;;5816482;28;20136;-81
2024/03/04 13:41:50;;;;;;;105.85;38.30;;;;;;;;;;5815356;28;20050;-80
2024/03/04 13:44:44;;;;;;;42.78;23.27;;;;;;;;;;5816695;28;20786;-80
2024/03/04 13:47:35;;;;;;;28.42;13.00;;;;;;;;;;5814340;28;20053;-81
2024/03/04 13:50:26;;;;;;;91.25;32.15;;;;;;;;;;5814458;28;20046;-79
2024/03/04 13:53:17;;;;;;;20.08;10.93;;;;;;;;;;5814364;28;20051;-80
2024/03/04 13:56:08;;;;;;;99.40;38.67;;;;;;;;;;5814898;28;20054;-79
2024/03/04 13:58:59;;;;;;;26.05;13.00;;;;;;;;;;5814962;28;20069;-79
2024/03/04 14:01:57;;;;;;;12.55;7.05;;;;;;;;;;5814966;28;20089;-81
2024/03/04 14:04:51;;;;;;;17.35;8.60;;;;;;;;;;5802205;28;20105;-80
2024/03/04 14:07:43;;;;;;;19.02;11.75;;;;;;;;;;5820152;28;20046;-79
2024/03/04 14:10:37;;;;;;;28.40;10.70;;;;;;;;;;5818316;28;20125;-80
2024/03/04 14:13:28;;;;;;;16.52;8.43;;;;;;;;;;5820294;28;20449;-80
2024/03/04 14:16:19;;;;;;;9.18;4.82;;;;;;;;;;5802467;28;20116;-80
2024/03/04 14:19:10;;;;;;;11.25;6.43;;;;;;;;;;5819093;28;20141;-80
2024/03/04 14:22:01;;;;;;;7.35;5.00;;;;;;;;;;5819905;28;20043;-80
2024/03/04 14:24:53;;;;;;;7.88;5.38;;;;;;;;;;5817734;28;20500;-82
2024/03/04 14:27:44;;;;;;;9.23;5.82;;;;;;;;;;5857056;28;20041;-80
2024/03/04 14:30:37;;;;;;;8.10;4.78;;;;;;;;;;5857740;28;20053;-79
2024/03/04 14:33:28;;;;;;;13.15;7.00;;;;;;;;;;5857231;28;20152;-82
2024/03/04 14:36:20;;;;;;;14.60;8.65;;;;;;;;;;5841321;28;20093;-80
2024/03/04 14:39:11;;;;;;;10.75;7.55;;;;;;;;;;5842532;28;20050;-80
2024/03/04 14:42:03;;;;;;;11.65;8.13;;;;;;;;;;5841091;28;20042;-78
2024/03/04 14:44:54;;;;;;;9.88;6.97;;;;;;;;;;5858165;28;20056;-81
2024/03/04 14:47:45;;;;;;;17.58;8.55;;;;;;;;;;5856853;28;20475;-80
2024/03/04 14:50:36;;;;;;;16.60;7.32;;;;;;;;;;5839812;28;20108;-79
2024/03/04 14:53:27;;;;;;;12.65;8.52;;;;;;;;;;5820748;28;20046;-79
2024/03/04 14:56:21;;;;;;;15.20;8.52;;;;;;;;;;5836623;28;20111;-79
2024/03/04 14:59:12;;;;;;;25.55;8.38;;;;;;;;;;5840201;28;20460;-79
2024/03/04 15:02:03;;;;;;;13.98;7.97;;;;;;;;;;5856676;28;20069;-79
2024/03/04 15:04:54;;;;;;;11.60;7.80;;;;;;;;;;5840538;28;20096;-80
2024/03/04 15:07:45;;;;;;;21.33;10.65;;;;;;;;;;5841223;28;20069;-79
2024/03/04 15:10:36;;;;;;;15.98;9.55;;;;;;;;;;5839335;28;20065;-80
2024/03/04 15:13:27;;;;;;;16.10;10.23;;;;;;;;;;5840035;28;20145;-79
2024/03/04 15:16:21;;;;;;;20.52;11.27;;;;;;;;;;5804520;28;20046;-79
2024/03/04 15:19:12;;;;;;;16.25;9.77;;;;;;;;;;5817151;28;20050;-79
2024/03/04 15:22:03;;;;;;;18.88;11.63;;;;;;;;;;5818520;28;20051;-80
2024/03/04 15:24:54;;;;;;;14.75;10.52;;;;;;;;;;5817053;28;20069;-82
2024/03/04 15:27:46;;;;;;;19.65;12.15;;;;;;;;;;5818157;28;20046;-80
2024/03/04 15:30:37;;;;;;;34.35;18.15;;;;;;;;;;5816721;28;20564;-79
2024/03/04 15:33:29;;;;;;;33.78;17.55;;;;;;;;;;5816717;28;20046;-81
2024/03/04 15:36:23;;;;;;;28.30;14.68;;;;;;;;;;5816482;28;20046;-81
2024/03/04 15:39:17;;;;;;;17.00;11.40;;;;;;;;;;5817724;28;20548;-80
2024/03/04 15:42:09;;;;;;;19.73;11.27;;;;;;;;;;5800668;28;20858;-81
2024/03/04 15:45:00;;;;;;;18.90;12.18;;;;;;;;;;5849363;28;20050;-82
2024/03/04 15:47:51;;;;;;;17.83;10.82;;;;;;;;;;5841130;28;20404;-81
2024/03/04 15:50:42;;;;;;;33.33;12.45;;;;;;;;;;5839205;28;20046;-81
2024/03/04 15:53:33;;;;;;;17.77;12.63;;;;;;;;;;5840793;28;20120;-81
2024/03/04 15:56:31;;;;;;;31.90;11.48;;;;;;;;;;5823481;28;20049;-81
2024/03/04 15:59:22;;;;;;;24.35;14.30;;;;;;;;;;5839161;28;20419;-81
2024/03/04 16:02:15;;;;;;;56.40;32.47;;;;;;;;;;5839106;28;20054;-81
2024/03/04 16:05:09;;;;;;;63.55;33.42;;;;;;;;;;5805906;28;20424;-81
2024/03/04 16:08:02;;;;;;;139.43;51.78;;;;;;;;;;5816460;28;20045;-82
2024/03/04 16:10:53;;;;;;;27.63;17.33;;;;;;;;;;5840574;28;20499;-81
2024/03/04 16:13:44;;;;;;;44.55;23.77;;;;;;;;;;5838852;28;20038;-81
2024/03/04 16:16:35;;;;;;;28.65;14.07;;;;;;;;;;5839361;28;20128;-81
2024/03/04 16:19:26;;;;;;;29.00;16.20;;;;;;;;;;5838915;28;20271;-81
2024/03/04 16:22:17;;;;;;;38.65;19.65;;;;;;;;;;5838724;28;20427;-81
2024/03/04 16:25:08;;;;;;;51.60;20.23;;;;;;;;;;5838812;28;20460;-81
2024/03/04 16:27:59;;;;;;;91.45;30.77;;;;;;;;;;5839757;28;20153;-81
2024/03/04 16:30:50;;;;;;;87.53;37.53;;;;;;;;;;5838758;28;20041;-81
2024/03/04 16:33:41;;;;;;;42.80;26.73;;;;;;;;;;5838018;28;20050;-82
2024/03/04 16:36:31;;;;;;;81.10;38.85;;;;;;;;;;5839928;28;20041;-82
2024/03/04 16:39:23;;;;;;;20.02;12.13;;;;;;;;;;5839898;28;20042;-81
2024/03/04 16:42:14;;;;;;;24.38;10.48;;;;;;;;;;5804560;28;20050;-81
2024/03/04 16:45:06;;;;;;;20.17;10.52;;;;;;;;;;5816983;28;20057;-81
2024/03/04 16:47:58;;;;;;;19.08;11.95;;;;;;;;;;5816569;28;20050;-81
2024/03/04 16:50:48;;;;;;;21.88;11.40;;;;;;;;;;5815115;28;20065;-82
2024/03/04 16:53:39;;;;;;;17.85;11.07;;;;;;;;;;5815094;28;20045;-81
2024/03/04 16:56:34;;;;;;;18.58;11.30;;;;;;;;;;5799280;28;20568;-82
2024/03/04 16:59:24;;;;;;;12.90;9.20;;;;;;;;;;5850986;28;20042;-81